Nunam Iqua, Alaska
Current Conditions -  °F | °C
As of 10:16 AM on Friday 21 Nov 2014 (Local Time) from PAEM Reporting Station
Clear Clear  
Wind Chill: 18°   Ceiling: Unl
Heat Index: 28°   Visibility: 10mi
Dew Point: 19°   Wind: 13mph
Humidity: 69%   Direction: 40°NE
Pressure: 29.02"   Gusts: 17mph
Location:  62.5092°N, 164.453°W
Report Text: PAEM 211916Z AUTO 04011G15KT 10SM CLR M02/M07 A2902 RMK AO1
Loading
Personal Weather Stations






























Interactive Weather Map New forecast layout! Learn more

10-Day Weather Forecast

Advertisements
Track Severe Weather on mobile